NOZ606 ENGM-ENBR
Flight info
| Callsign | NOZ606 |
|---|---|
| Flight time | 0h 49m |
| Altitude | 28000 |
| Route | ATLAP DCT AGEKU DCT PESUR |
| Aircraft | B738/M-SDE2E3FGHIRWXY/LB1 |
Departure
| Time | 2026-05-04 21:44 |
|---|---|
| Airport | Oslo-Gardermoen International Airport (ENGM) |
Arrival
| Time | 2026-05-04 22:33 |
|---|---|
| Airport | Bergen Airport, Flesland (ENBR) |
| Time | Latitude | Longitude | Altitude | Speed | Heading |
|---|---|---|---|---|---|
| 2026-05-04 21:16 | 60.19533 | 11.09655 | 680 ft | 0 kts | 195° |
| 2026-05-04 21:27 | 60.19535 | 11.09656 | 680 ft | 3 kts | 195° |
| 2026-05-04 21:27 | 60.19561 | 11.09670 | 680 ft | 4 kts | 195° |
| 2026-05-04 21:28 | 60.19584 | 11.09683 | 680 ft | 1 kts | 195° |
| 2026-05-04 21:28 | 60.19585 | 11.09684 | 680 ft | 0 kts | 195° |
| 2026-05-04 21:32 | 60.19584 | 11.09666 | 680 ft | 2 kts | 285° |
| 2026-05-04 21:32 | 60.19607 | 11.09662 | 680 ft | 4 kts | 2° |
| 2026-05-04 21:32 | 60.19653 | 11.09605 | 679 ft | 10 kts | 296° |
| 2026-05-04 21:32 | 60.19672 | 11.09477 | 680 ft | 9 kts | 284° |
| 2026-05-04 21:33 | 60.19688 | 11.09352 | 678 ft | 9 kts | 286° |
| 2026-05-04 21:33 | 60.19706 | 11.09231 | 681 ft | 9 kts | 286° |
| 2026-05-04 21:33 | 60.19722 | 11.09113 | 679 ft | 9 kts | 285° |
| 2026-05-04 21:33 | 60.19739 | 11.08994 | 677 ft | 9 kts | 286° |
| 2026-05-04 21:34 | 60.19756 | 11.08877 | 674 ft | 9 kts | 285° |
| 2026-05-04 21:34 | 60.19771 | 11.08764 | 676 ft | 8 kts | 284° |
| 2026-05-04 21:34 | 60.19753 | 11.08665 | 677 ft | 8 kts | 210° |
| 2026-05-04 21:34 | 60.19714 | 11.08638 | 674 ft | 5 kts | 198° |
| 2026-05-04 21:35 | 60.19687 | 11.08621 | 675 ft | 0 kts | 198° |
| 2026-05-04 21:39 | 60.19682 | 11.08617 | 675 ft | 4 kts | 197° |
| 2026-05-04 21:39 | 60.19623 | 11.08585 | 677 ft | 12 kts | 195° |
| 2026-05-04 21:40 | 60.19537 | 11.08537 | 679 ft | 13 kts | 196° |
| 2026-05-04 21:40 | 60.19452 | 11.08486 | 679 ft | 13 kts | 197° |
| 2026-05-04 21:40 | 60.19367 | 11.08438 | 677 ft | 14 kts | 195° |
| 2026-05-04 21:40 | 60.19268 | 11.08381 | 679 ft | 15 kts | 195° |
| 2026-05-04 21:41 | 60.19168 | 11.08324 | 678 ft | 15 kts | 196° |
| 2026-05-04 21:41 | 60.19073 | 11.08268 | 677 ft | 14 kts | 196° |
| 2026-05-04 21:41 | 60.18981 | 11.08216 | 675 ft | 14 kts | 196° |
| 2026-05-04 21:41 | 60.18875 | 11.08155 | 669 ft | 17 kts | 196° |
| 2026-05-04 21:42 | 60.18766 | 11.08092 | 668 ft | 16 kts | 196° |
| 2026-05-04 21:42 | 60.18663 | 11.08029 | 667 ft | 15 kts | 196° |
| 2026-05-04 21:42 | 60.18565 | 11.07969 | 665 ft | 15 kts | 204° |
| 2026-05-04 21:42 | 60.18548 | 11.07794 | 663 ft | 14 kts | 287° |
| 2026-05-04 21:43 | 60.18577 | 11.07609 | 662 ft | 14 kts | 288° |
| 2026-05-04 21:43 | 60.18635 | 11.07475 | 662 ft | 13 kts | 341° |
| 2026-05-04 21:43 | 60.18722 | 11.07501 | 662 ft | 13 kts | 16° |
| 2026-05-04 21:43 | 60.18984 | 11.07654 | 669 ft | 81 kts | 16° |
| 2026-05-04 21:44 | 60.19790 | 11.08123 | 673 ft | 158 kts | 15° |
| 2026-05-04 21:44 | 60.20988 | 11.08800 | 1174 ft | 186 kts | 17° |
| 2026-05-04 21:44 | 60.22235 | 11.09590 | 2297 ft | 185 kts | 17° |
| 2026-05-04 21:44 | 60.23479 | 11.10331 | 3134 ft | 200 kts | 12° |
| 2026-05-04 21:45 | 60.24918 | 11.11076 | 3341 ft | 227 kts | 9° |
| 2026-05-04 21:45 | 60.26532 | 11.11376 | 3728 ft | 235 kts | 348° |
| 2026-05-04 21:45 | 60.28157 | 11.10848 | 4349 ft | 242 kts | 346° |
| 2026-05-04 21:45 | 60.29831 | 11.09998 | 4835 ft | 251 kts | 328° |
| 2026-05-04 21:46 | 60.31092 | 11.07683 | 5721 ft | 245 kts | 300° |
| 2026-05-04 21:46 | 60.31633 | 11.04476 | 6655 ft | 244 kts | 274° |
| 2026-05-04 21:46 | 60.31415 | 11.01122 | 7459 ft | 252 kts | 251° |
| 2026-05-04 21:46 | 60.30700 | 10.97857 | 8252 ft | 256 kts | 257° |
| 2026-05-04 21:47 | 60.30650 | 10.94304 | 9033 ft | 257 kts | 282° |
| 2026-05-04 21:47 | 60.31111 | 10.90787 | 9856 ft | 261 kts | 285° |
| 2026-05-04 21:47 | 60.31596 | 10.87178 | 10362 ft | 278 kts | 285° |
| 2026-05-04 21:47 | 60.31943 | 10.83193 | 10531 ft | 303 kts | 267° |
| 2026-05-04 21:48 | 60.31214 | 10.79068 | 10885 ft | 327 kts | 238° |
| 2026-05-04 21:48 | 60.29490 | 10.75947 | 11598 ft | 342 kts | 218° |
| 2026-05-04 21:48 | 60.27480 | 10.73487 | 12410 ft | 343 kts | 217° |
| 2026-05-04 21:48 | 60.25424 | 10.71028 | 13226 ft | 344 kts | 218° |
| 2026-05-04 21:49 | 60.23378 | 10.68535 | 14068 ft | 343 kts | 218° |
| 2026-05-04 21:49 | 60.21360 | 10.66038 | 15026 ft | 338 kts | 219° |
| 2026-05-04 21:49 | 60.19387 | 10.63564 | 16048 ft | 329 kts | 222° |
| 2026-05-04 21:49 | 60.17804 | 10.60481 | 17002 ft | 310 kts | 240° |
| 2026-05-04 21:50 | 60.16798 | 10.56766 | 17997 ft | 298 kts | 251° |
| 2026-05-04 21:50 | 60.16269 | 10.52875 | 18907 ft | 290 kts | 263° |
| 2026-05-04 21:50 | 60.16101 | 10.48861 | 19469 ft | 288 kts | 266° |
| 2026-05-04 21:50 | 60.16022 | 10.44846 | 19748 ft | 288 kts | 267° |
| 2026-05-04 21:51 | 60.15961 | 10.40854 | 19773 ft | 285 kts | 267° |
| 2026-05-04 21:51 | 60.15897 | 10.36843 | 19813 ft | 293 kts | 267° |
| 2026-05-04 21:51 | 60.15821 | 10.32641 | 19954 ft | 309 kts | 267° |
| 2026-05-04 21:51 | 60.15735 | 10.28229 | 20155 ft | 323 kts | 267° |
| 2026-05-04 21:52 | 60.15639 | 10.23659 | 20522 ft | 331 kts | 267° |
| 2026-05-04 21:52 | 60.15539 | 10.19075 | 21001 ft | 335 kts | 266° |
| 2026-05-04 21:52 | 60.15434 | 10.14415 | 21584 ft | 334 kts | 266° |
| 2026-05-04 21:52 | 60.15328 | 10.09773 | 22308 ft | 331 kts | 266° |
| 2026-05-04 21:53 | 60.15220 | 10.05182 | 23009 ft | 328 kts | 266° |
| 2026-05-04 21:53 | 60.15111 | 10.00630 | 23652 ft | 326 kts | 266° |
| 2026-05-04 21:53 | 60.15001 | 9.96090 | 24238 ft | 325 kts | 266° |
| 2026-05-04 21:53 | 60.14891 | 9.91575 | 24902 ft | 322 kts | 266° |
| 2026-05-04 21:54 | 60.14779 | 9.87101 | 25492 ft | 321 kts | 266° |
| 2026-05-04 21:54 | 60.14666 | 9.82692 | 26007 ft | 321 kts | 266° |
| 2026-05-04 21:54 | 60.14608 | 9.78216 | 26585 ft | 320 kts | 270° |
| 2026-05-04 21:54 | 60.14744 | 9.73753 | 27159 ft | 320 kts | 272° |
| 2026-05-04 21:55 | 60.14944 | 9.69308 | 27633 ft | 320 kts | 272° |
| 2026-05-04 21:55 | 60.15157 | 9.64841 | 27757 ft | 321 kts | 272° |
| 2026-05-04 21:55 | 60.15365 | 9.60393 | 27790 ft | 320 kts | 272° |
| 2026-05-04 21:55 | 60.15564 | 9.55930 | 27786 ft | 321 kts | 272° |
| 2026-05-04 21:56 | 60.15757 | 9.51462 | 27801 ft | 322 kts | 272° |
| 2026-05-04 21:56 | 60.15943 | 9.46980 | 27808 ft | 323 kts | 272° |
| 2026-05-04 21:56 | 60.16126 | 9.42481 | 27805 ft | 324 kts | 272° |
| 2026-05-04 21:56 | 60.16303 | 9.38033 | 27798 ft | 324 kts | 272° |
| 2026-05-04 21:57 | 60.16480 | 9.33536 | 27788 ft | 324 kts | 272° |
| 2026-05-04 21:57 | 60.16654 | 9.29042 | 27807 ft | 323 kts | 272° |
| 2026-05-04 21:57 | 60.16828 | 9.24528 | 27807 ft | 324 kts | 272° |
| 2026-05-04 21:57 | 60.16999 | 9.20014 | 27808 ft | 324 kts | 271° |
| 2026-05-04 21:58 | 60.17168 | 9.15508 | 27810 ft | 324 kts | 272° |
| 2026-05-04 21:58 | 60.17335 | 9.11004 | 27804 ft | 324 kts | 272° |
| 2026-05-04 21:58 | 60.17501 | 9.06490 | 27800 ft | 324 kts | 271° |
| 2026-05-04 21:58 | 60.17663 | 9.02042 | 27814 ft | 324 kts | 271° |
| 2026-05-04 21:59 | 60.17826 | 8.97538 | 27789 ft | 323 kts | 271° |
| 2026-05-04 21:59 | 60.17987 | 8.93055 | 27792 ft | 321 kts | 271° |
| 2026-05-04 21:59 | 60.18145 | 8.88576 | 27812 ft | 321 kts | 271° |
| 2026-05-04 21:59 | 60.18302 | 8.84101 | 27813 ft | 321 kts | 271° |
| 2026-05-04 22:00 | 60.18458 | 8.79633 | 27808 ft | 321 kts | 271° |
| 2026-05-04 22:00 | 60.18612 | 8.75160 | 27813 ft | 321 kts | 271° |
| 2026-05-04 22:00 | 60.18765 | 8.70671 | 27818 ft | 322 kts | 271° |
| 2026-05-04 22:00 | 60.18915 | 8.66236 | 27824 ft | 323 kts | 271° |
| 2026-05-04 22:01 | 60.19065 | 8.61740 | 27819 ft | 324 kts | 271° |
| 2026-05-04 22:01 | 60.19215 | 8.57213 | 27822 ft | 325 kts | 271° |
| 2026-05-04 22:01 | 60.19363 | 8.52686 | 27816 ft | 325 kts | 271° |
| 2026-05-04 22:01 | 60.19511 | 8.48148 | 27817 ft | 326 kts | 271° |
| 2026-05-04 22:02 | 60.19657 | 8.43599 | 27807 ft | 326 kts | 271° |
| 2026-05-04 22:02 | 60.19803 | 8.39063 | 27820 ft | 326 kts | 271° |
| 2026-05-04 22:02 | 60.19943 | 8.34571 | 27817 ft | 326 kts | 271° |
| 2026-05-04 22:02 | 60.20084 | 8.30030 | 27813 ft | 326 kts | 271° |
| 2026-05-04 22:03 | 60.20223 | 8.25478 | 27815 ft | 326 kts | 271° |
| 2026-05-04 22:03 | 60.20361 | 8.20927 | 27821 ft | 325 kts | 271° |
| 2026-05-04 22:03 | 60.20498 | 8.16474 | 27811 ft | 313 kts | 271° |
| 2026-05-04 22:03 | 60.20628 | 8.12185 | 27726 ft | 303 kts | 271° |
| 2026-05-04 22:04 | 60.20752 | 8.08003 | 27536 ft | 295 kts | 271° |
| 2026-05-04 22:04 | 60.20872 | 8.03888 | 27190 ft | 293 kts | 270° |
| 2026-05-04 22:04 | 60.20988 | 7.99837 | 26882 ft | 289 kts | 270° |
| 2026-05-04 22:04 | 60.21103 | 7.95819 | 26559 ft | 285 kts | 271° |
| 2026-05-04 22:05 | 60.21213 | 7.91907 | 26213 ft | 283 kts | 271° |
| 2026-05-04 22:05 | 60.21323 | 7.87970 | 25867 ft | 281 kts | 271° |
| 2026-05-04 22:05 | 60.21431 | 7.84069 | 25517 ft | 278 kts | 271° |
| 2026-05-04 22:05 | 60.21538 | 7.80216 | 25185 ft | 275 kts | 270° |
| 2026-05-04 22:06 | 60.21642 | 7.76399 | 24848 ft | 272 kts | 270° |
| 2026-05-04 22:06 | 60.21744 | 7.72615 | 24542 ft | 269 kts | 270° |
| 2026-05-04 22:06 | 60.21843 | 7.68874 | 24205 ft | 266 kts | 270° |
| 2026-05-04 22:06 | 60.21940 | 7.65173 | 23883 ft | 264 kts | 270° |
| 2026-05-04 22:07 | 60.22035 | 7.61503 | 23559 ft | 261 kts | 270° |
| 2026-05-04 22:07 | 60.22127 | 7.57928 | 23262 ft | 258 kts | 270° |
| 2026-05-04 22:07 | 60.22218 | 7.54332 | 22940 ft | 256 kts | 271° |
| 2026-05-04 22:07 | 60.22307 | 7.50780 | 22631 ft | 253 kts | 271° |
| 2026-05-04 22:08 | 60.22395 | 7.47260 | 22319 ft | 251 kts | 270° |
| 2026-05-04 22:08 | 60.22481 | 7.43771 | 22034 ft | 248 kts | 271° |
| 2026-05-04 22:08 | 60.22565 | 7.40314 | 21720 ft | 247 kts | 271° |
| 2026-05-04 22:08 | 60.22647 | 7.36924 | 21418 ft | 245 kts | 271° |
| 2026-05-04 22:09 | 60.22728 | 7.33501 | 21128 ft | 245 kts | 271° |
| 2026-05-04 22:09 | 60.22809 | 7.30067 | 20835 ft | 247 kts | 271° |
| 2026-05-04 22:09 | 60.22891 | 7.26554 | 20537 ft | 256 kts | 271° |
| 2026-05-04 22:09 | 60.22973 | 7.22940 | 20223 ft | 260 kts | 271° |
| 2026-05-04 22:10 | 60.23055 | 7.19309 | 19903 ft | 259 kts | 271° |
| 2026-05-04 22:10 | 60.23137 | 7.15701 | 19577 ft | 257 kts | 271° |
| 2026-05-04 22:10 | 60.23217 | 7.12134 | 19268 ft | 254 kts | 271° |
| 2026-05-04 22:10 | 60.23296 | 7.08601 | 18964 ft | 251 kts | 271° |
| 2026-05-04 22:11 | 60.23372 | 7.05148 | 18681 ft | 248 kts | 271° |
| 2026-05-04 22:11 | 60.23447 | 7.01694 | 18359 ft | 247 kts | 271° |
| 2026-05-04 22:11 | 60.23519 | 6.98267 | 18097 ft | 244 kts | 272° |
| 2026-05-04 22:11 | 60.23591 | 6.94857 | 17788 ft | 243 kts | 272° |
| 2026-05-04 22:12 | 60.23661 | 6.91477 | 17490 ft | 241 kts | 272° |
| 2026-05-04 22:12 | 60.23729 | 6.88133 | 17224 ft | 237 kts | 272° |
| 2026-05-04 22:12 | 60.23795 | 6.84833 | 16906 ft | 234 kts | 272° |
| 2026-05-04 22:12 | 60.23860 | 6.81600 | 16676 ft | 231 kts | 272° |
| 2026-05-04 22:13 | 60.23921 | 6.78367 | 16411 ft | 231 kts | 272° |
| 2026-05-04 22:13 | 60.23982 | 6.75165 | 16123 ft | 235 kts | 272° |
| 2026-05-04 22:13 | 60.24051 | 6.71826 | 15842 ft | 243 kts | 272° |
| 2026-05-04 22:13 | 60.24119 | 6.68402 | 15545 ft | 246 kts | 272° |
| 2026-05-04 22:14 | 60.24183 | 6.64976 | 15254 ft | 244 kts | 273° |
| 2026-05-04 22:14 | 60.24245 | 6.61557 | 14960 ft | 245 kts | 272° |
| 2026-05-04 22:14 | 60.24298 | 6.58143 | 14686 ft | 242 kts | 271° |
| 2026-05-04 22:14 | 60.24241 | 6.54739 | 14281 ft | 243 kts | 269° |
| 2026-05-04 22:15 | 60.24142 | 6.51427 | 13973 ft | 237 kts | 269° |
| 2026-05-04 22:15 | 60.24042 | 6.48153 | 13717 ft | 232 kts | 269° |
| 2026-05-04 22:15 | 60.23943 | 6.44920 | 13445 ft | 231 kts | 269° |
| 2026-05-04 22:15 | 60.23847 | 6.41694 | 13167 ft | 231 kts | 269° |
| 2026-05-04 22:16 | 60.23753 | 6.38479 | 12833 ft | 231 kts | 269° |
| 2026-05-04 22:16 | 60.23655 | 6.35120 | 11910 ft | 252 kts | 269° |
| 2026-05-04 22:16 | 60.23554 | 6.31559 | 11584 ft | 252 kts | 269° |
| 2026-05-04 22:16 | 60.23450 | 6.28052 | 11303 ft | 250 kts | 269° |
| 2026-05-04 22:17 | 60.23344 | 6.24550 | 11037 ft | 250 kts | 269° |
| 2026-05-04 22:17 | 60.23239 | 6.21066 | 10807 ft | 250 kts | 269° |
| 2026-05-04 22:17 | 60.23134 | 6.17623 | 10541 ft | 251 kts | 269° |
| 2026-05-04 22:17 | 60.23027 | 6.14098 | 10283 ft | 252 kts | 269° |
| 2026-05-04 22:18 | 60.22920 | 6.10577 | 10031 ft | 252 kts | 268° |
| 2026-05-04 22:18 | 60.22811 | 6.07045 | 9782 ft | 254 kts | 268° |
| 2026-05-04 22:18 | 60.22701 | 6.03486 | 9530 ft | 254 kts | 268° |
| 2026-05-04 22:18 | 60.22592 | 5.99965 | 9271 ft | 251 kts | 268° |
| 2026-05-04 22:19 | 60.22483 | 5.96471 | 9016 ft | 249 kts | 268° |
| 2026-05-04 22:19 | 60.22372 | 5.93003 | 8758 ft | 248 kts | 267° |
| 2026-05-04 22:19 | 60.22263 | 5.89570 | 8531 ft | 251 kts | 267° |
| 2026-05-04 22:19 | 60.22134 | 5.86054 | 8272 ft | 254 kts | 263° |
| 2026-05-04 22:20 | 60.21507 | 5.82744 | 8042 ft | 254 kts | 241° |
| 2026-05-04 22:20 | 60.20598 | 5.79684 | 8010 ft | 255 kts | 242° |
| 2026-05-04 22:20 | 60.19711 | 5.76632 | 7961 ft | 250 kts | 242° |
| 2026-05-04 22:20 | 60.18705 | 5.73891 | 7941 ft | 242 kts | 221° |
| 2026-05-04 22:21 | 60.17212 | 5.72456 | 7966 ft | 240 kts | 195° |
| 2026-05-04 22:21 | 60.15547 | 5.72362 | 7952 ft | 242 kts | 172° |
| 2026-05-04 22:21 | 60.13924 | 5.73366 | 7973 ft | 247 kts | 163° |
| 2026-05-04 22:21 | 60.12311 | 5.74501 | 7970 ft | 250 kts | 171° |
| 2026-05-04 22:22 | 60.10596 | 5.74656 | 7982 ft | 245 kts | 185° |
| 2026-05-04 22:22 | 60.08887 | 5.74579 | 7969 ft | 247 kts | 184° |
| 2026-05-04 22:22 | 60.07172 | 5.74543 | 7962 ft | 246 kts | 186° |
| 2026-05-04 22:22 | 60.05529 | 5.73835 | 7869 ft | 242 kts | 204° |
| 2026-05-04 22:23 | 60.03935 | 5.72605 | 7598 ft | 245 kts | 204° |
| 2026-05-04 22:23 | 60.02347 | 5.71416 | 7386 ft | 242 kts | 203° |
| 2026-05-04 22:23 | 60.00849 | 5.69992 | 7155 ft | 236 kts | 220° |
| 2026-05-04 22:23 | 59.99639 | 5.67917 | 6972 ft | 230 kts | 223° |
| 2026-05-04 22:24 | 59.98426 | 5.65843 | 6769 ft | 229 kts | 223° |
| 2026-05-04 22:24 | 59.97213 | 5.63793 | 6602 ft | 227 kts | 225° |
| 2026-05-04 22:24 | 59.96279 | 5.61308 | 6420 ft | 224 kts | 245° |
| 2026-05-04 22:24 | 59.95560 | 5.58538 | 6242 ft | 226 kts | 244° |
| 2026-05-04 22:25 | 59.95031 | 5.55604 | 6031 ft | 226 kts | 268° |
| 2026-05-04 22:25 | 59.95338 | 5.52572 | 5862 ft | 226 kts | 297° |
| 2026-05-04 22:25 | 59.96377 | 5.50236 | 5662 ft | 229 kts | 325° |
| 2026-05-04 22:25 | 59.97846 | 5.48965 | 5486 ft | 232 kts | 340° |
| 2026-05-04 22:26 | 59.99393 | 5.48022 | 5278 ft | 233 kts | 341° |
| 2026-05-04 22:26 | 60.00914 | 5.47103 | 5072 ft | 230 kts | 341° |
| 2026-05-04 22:26 | 60.02440 | 5.46170 | 4865 ft | 228 kts | 341° |
| 2026-05-04 22:26 | 60.03947 | 5.45240 | 4669 ft | 225 kts | 341° |
| 2026-05-04 22:27 | 60.05436 | 5.44312 | 4481 ft | 223 kts | 341° |
| 2026-05-04 22:27 | 60.06911 | 5.43391 | 4291 ft | 222 kts | 341° |
| 2026-05-04 22:27 | 60.08372 | 5.42435 | 4093 ft | 220 kts | 334° |
| 2026-05-04 22:27 | 60.09493 | 5.40482 | 4012 ft | 215 kts | 298° |
| 2026-05-04 22:28 | 60.09998 | 5.37690 | 3990 ft | 213 kts | 282° |
| 2026-05-04 22:28 | 60.10270 | 5.34861 | 3796 ft | 210 kts | 281° |
| 2026-05-04 22:28 | 60.10529 | 5.31977 | 3562 ft | 205 kts | 280° |
| 2026-05-04 22:28 | 60.10837 | 5.29298 | 3472 ft | 191 kts | 298° |
| 2026-05-04 22:29 | 60.11825 | 5.27744 | 3380 ft | 185 kts | 345° |
| 2026-05-04 22:29 | 60.13085 | 5.27428 | 3155 ft | 180 kts | 348° |
| 2026-05-04 22:29 | 60.14303 | 5.26934 | 2916 ft | 177 kts | 347° |
| 2026-05-04 22:29 | 60.15498 | 5.26463 | 2674 ft | 174 kts | 347° |
| 2026-05-04 22:30 | 60.16696 | 5.26139 | 2456 ft | 173 kts | 346° |
| 2026-05-04 22:30 | 60.17869 | 5.25583 | 2233 ft | 173 kts | 349° |
| 2026-05-04 22:30 | 60.19052 | 5.25258 | 2041 ft | 174 kts | 351° |
| 2026-05-04 22:30 | 60.20258 | 5.24879 | 1759 ft | 173 kts | 352° |
| 2026-05-04 22:31 | 60.21399 | 5.24522 | 1522 ft | 160 kts | 349° |
| 2026-05-04 22:31 | 60.22452 | 5.24132 | 1323 ft | 149 kts | 351° |
| 2026-05-04 22:31 | 60.23466 | 5.23789 | 1139 ft | 146 kts | 351° |
| 2026-05-04 22:31 | 60.24453 | 5.23456 | 947 ft | 142 kts | 351° |
| 2026-05-04 22:32 | 60.25425 | 5.23129 | 697 ft | 143 kts | 351° |
| 2026-05-04 22:32 | 60.26405 | 5.22816 | 522 ft | 142 kts | 352° |
| 2026-05-04 22:32 | 60.27374 | 5.22490 | 376 ft | 142 kts | 351° |
| 2026-05-04 22:32 | 60.28314 | 5.22165 | 195 ft | 140 kts | 352° |
| 2026-05-04 22:33 | 60.29229 | 5.21861 | 157 ft | 113 kts | 350° |
| 2026-05-04 22:33 | 60.29794 | 5.21671 | 154 ft | 52 kts | 351° |
| 2026-05-04 22:33 | 60.29992 | 5.21610 | 161 ft | 17 kts | 2° |
| 2026-05-04 22:33 | 60.30047 | 5.21798 | 159 ft | 17 kts | 87° |
| 2026-05-04 22:34 | 60.29964 | 5.21929 | 155 ft | 17 kts | 169° |
| 2026-05-04 22:34 | 60.29848 | 5.21968 | 150 ft | 18 kts | 170° |
| 2026-05-04 22:34 | 60.29720 | 5.22012 | 147 ft | 19 kts | 171° |
| 2026-05-04 22:34 | 60.29594 | 5.22054 | 149 ft | 18 kts | 171° |
| 2026-05-04 22:35 | 60.29474 | 5.22093 | 155 ft | 17 kts | 171° |
| 2026-05-04 22:35 | 60.29356 | 5.22132 | 159 ft | 17 kts | 171° |
| 2026-05-04 22:35 | 60.29256 | 5.22167 | 162 ft | 11 kts | 171° |
| 2026-05-04 22:35 | 60.29217 | 5.22180 | 162 ft | 4 kts | 170° |
| 2026-05-04 22:36 | 60.29188 | 5.22191 | 162 ft | 4 kts | 170° |
| 2026-05-04 22:36 | 60.29159 | 5.22200 | 162 ft | 4 kts | 171° |
| 2026-05-04 22:36 | 60.29130 | 5.22210 | 162 ft | 4 kts | 170° |
| 2026-05-04 22:36 | 60.29103 | 5.22219 | 162 ft | 4 kts | 169° |
| 2026-05-04 22:37 | 60.29056 | 5.22236 | 162 ft | 8 kts | 171° |
| 2026-05-04 22:37 | 60.28997 | 5.22256 | 161 ft | 9 kts | 170° |
| 2026-05-04 22:37 | 60.28938 | 5.22277 | 161 ft | 9 kts | 170° |
| 2026-05-04 22:37 | 60.28879 | 5.22296 | 161 ft | 8 kts | 170° |
| 2026-05-04 22:38 | 60.28817 | 5.22317 | 161 ft | 9 kts | 171° |
| 2026-05-04 22:38 | 60.28754 | 5.22337 | 162 ft | 9 kts | 171° |
| 2026-05-04 22:38 | 60.28696 | 5.22373 | 163 ft | 9 kts | 137° |
| 2026-05-04 22:38 | 60.28700 | 5.22486 | 165 ft | 9 kts | 67° |
| 2026-05-04 22:39 | 60.28711 | 5.22561 | 166 ft | 8 kts | 77° |
| 2026-05-04 22:39 | 60.28724 | 5.22710 | 170 ft | 8 kts | 80° |
| 2026-05-04 22:39 | 60.28730 | 5.22784 | 172 ft | 8 kts | 81° |
| 2026-05-04 22:39 | 60.28738 | 5.22888 | 172 ft | 2 kts | 80° |
| 2026-05-04 22:40 | 60.28740 | 5.22903 | 172 ft | 0 kts | 80° |